Time;durP1;ratioP1;P1;durP2;ratioP2;P2;SDS_P1;SDS_P2;PMS_P1;PMS_P2;Temp;Humidity;BMP_temperature;BMP_pressure;BME280_temperature;BME280_humidity;BME280_pressure;Samples;Min_cycle;Max_cycle;Signal;HPM_P1;HPM_P2
2023/07/03 00:00:58;;;;;;;13.17;4.43;;;;;;;;;;5015705;28;20199;-70
2023/07/03 00:03:24;;;;;;;15.40;4.90;;;;;;;;;;5033324;28;20194;-69
2023/07/03 00:05:50;;;;;;;11.20;4.87;;;;;;;;;;5015710;28;20191;-69
2023/07/03 00:08:17;;;;;;;10.27;4.33;;;;;;;;;;5033538;28;20182;-69
2023/07/03 00:10:43;;;;;;;15.10;4.83;;;;;;;;;;5033560;28;20225;-69
2023/07/03 00:13:10;;;;;;;14.07;4.90;;;;;;;;;;5015538;28;20179;-69
2023/07/03 00:15:36;;;;;;;16.87;5.40;;;;;;;;;;5033905;28;20287;-69
2023/07/03 00:18:02;;;;;;;15.37;5.20;;;;;;;;;;5033926;28;20684;-69
2023/07/03 00:20:28;;;;;;;13.37;4.67;;;;;;;;;;5033104;28;20175;-69
2023/07/03 00:22:54;;;;;;;17.50;4.87;;;;;;;;;;5016455;28;20540;-69
2023/07/03 00:25:20;;;;;;;15.03;4.73;;;;;;;;;;5033374;28;20190;-69
2023/07/03 00:27:47;;;;;;;23.93;4.63;;;;;;;;;;5015631;28;20194;-69
2023/07/03 00:30:13;;;;;;;16.33;4.70;;;;;;;;;;5033071;28;20553;-69
2023/07/03 00:32:39;;;;;;;15.67;5.03;;;;;;;;;;5033293;28;20176;-69
2023/07/03 00:35:06;;;;;;;18.17;5.07;;;;;;;;;;5033078;28;20194;-69
2023/07/03 00:37:32;;;;;;;;;;;;;;;;;;5033637;28;20128;-69
2023/07/03 00:39:58;;;;;;;;;;;;;;;;;;5033821;28;19905;-69
2023/07/03 00:42:24;;;;;;;;;;;;;;;;;;5033751;28;19909;-69
2023/07/03 00:44:50;;;;;;;;;;;;;;;;;;5033438;28;20326;-69
2023/07/03 00:47:16;;;;;;;;;;;;;;;;;;5015600;28;19997;-69
2023/07/03 00:49:41;;;;;;;14.97;4.40;;;;;;;;;;5036256;28;20664;-69
2023/07/03 00:52:09;;;;;;;14.63;5.37;;;;;;;;;;5019229;28;20175;-69
2023/07/03 00:54:35;;;;;;;16.37;4.63;;;;;;;;;;5036941;28;20669;-70
2023/07/03 00:57:01;;;;;;;15.43;4.90;;;;;;;;;;5019129;28;20175;-69
2023/07/03 00:59:27;;;;;;;12.83;4.50;;;;;;;;;;5036840;28;20182;-69
2023/07/03 01:01:56;;;;;;;14.00;5.03;;;;;;;;;;5036733;28;20253;-69
2023/07/03 01:04:24;;;;;;;18.43;5.30;;;;;;;;;;5036855;28;20689;-69
2023/07/03 01:06:58;;;;;;;13.33;4.30;;;;;;;;;;5037072;28;20179;-69
2023/07/03 01:09:27;;;;;;;14.30;5.03;;;;;;;;;;5019026;28;20220;-69
2023/07/03 01:11:54;;;;;;;14.50;4.57;;;;;;;;;;5018993;28;20183;-69
2023/07/03 01:14:22;;;;;;;14.03;5.30;;;;;;;;;;5019068;28;20297;-69
2023/07/03 01:16:49;;;;;;;13.90;4.73;;;;;;;;;;5019552;28;20264;-69
2023/07/03 01:19:19;;;;;;;13.83;5.23;;;;;;;;;;5036810;28;20195;-69
2023/07/03 01:21:50;;;;;;;15.37;5.00;;;;;;;;;;5018824;28;20237;-69
2023/07/03 01:24:32;;;;;;;18.80;5.50;;;;;;;;;;5036752;28;20195;-69
2023/07/03 01:27:01;;;;;;;13.47;4.93;;;;;;;;;;5018488;28;20679;-69
2023/07/03 01:29:27;;;;;;;14.43;5.03;;;;;;;;;;5018706;28;20259;-69
2023/07/03 01:31:54;;;;;;;18.57;5.47;;;;;;;;;;5036567;28;20185;-69
2023/07/03 01:34:20;;;;;;;14.67;5.40;;;;;;;;;;5036509;28;20664;-69
2023/07/03 01:36:46;;;;;;;16.40;5.33;;;;;;;;;;5018440;28;20206;-69
2023/07/03 01:39:12;;;;;;;19.13;5.27;;;;;;;;;;5018489;28;20250;-69
2023/07/03 01:41:38;;;;;;;11.43;4.27;;;;;;;;;;5036602;28;20234;-69
2023/07/03 01:44:04;;;;;;;17.07;4.73;;;;;;;;;;5035886;28;20195;-69
2023/07/03 01:46:30;;;;;;;13.93;5.27;;;;;;;;;;5018337;28;20189;-69
2023/07/03 01:48:56;;;;;;;19.20;5.20;;;;;;;;;;5018325;28;20175;-69
2023/07/03 01:51:38;;;;;;;19.97;5.37;;;;;;;;;;5036050;28;20262;-69
2023/07/03 01:54:16;;;;;;;15.73;5.23;;;;;;;;;;5036616;28;20216;-69
2023/07/03 01:56:44;;;;;;;15.63;5.80;;;;;;;;;;5036155;28;20542;-69
2023/07/03 01:59:14;;;;;;;15.87;4.67;;;;;;;;;;5035430;28;20175;-69
2023/07/03 02:01:53;;;;;;;22.30;5.97;;;;;;;;;;5018395;28;20230;-69
2023/07/03 02:04:27;;;;;;;15.87;4.87;;;;;;;;;;5018083;28;20218;-69
2023/07/03 02:06:56;;;;;;;22.60;5.50;;;;;;;;;;5035996;28;20183;-69
2023/07/03 02:09:22;;;;;;;19.73;5.77;;;;;;;;;;5021023;28;20235;-69
2023/07/03 02:11:48;;;;;;;24.57;5.50;;;;;;;;;;5038420;28;20211;-69
2023/07/03 02:14:15;;;;;;;19.20;5.40;;;;;;;;;;5035464;28;20194;-69
2023/07/03 02:16:41;;;;;;;20.53;5.77;;;;;;;;;;5017770;28;20237;-69
2023/07/03 02:19:08;;;;;;;20.30;5.03;;;;;;;;;;5036029;28;20190;-69
2023/07/03 02:21:35;;;;;;;20.70;5.77;;;;;;;;;;5017821;28;20199;-69
2023/07/03 02:24:01;;;;;;;20.33;5.60;;;;;;;;;;5035850;28;20192;-69
2023/07/03 02:26:28;;;;;;;21.33;5.33;;;;;;;;;;5035798;28;20629;-69
2023/07/03 02:28:54;;;;;;;23.53;6.00;;;;;;;;;;5035388;28;20182;-69
2023/07/03 02:31:20;;;;;;;21.00;5.70;;;;;;;;;;5017613;28;20269;-69
2023/07/03 02:33:46;;;;;;;22.03;5.80;;;;;;;;;;5035299;28;20210;-69
2023/07/03 02:36:12;;;;;;;18.57;5.90;;;;;;;;;;5017745;28;20653;-69
2023/07/03 02:38:38;;;;;;;18.97;5.50;;;;;;;;;;5017897;28;20179;-69
2023/07/03 02:41:03;;;;;;;22.43;5.57;;;;;;;;;;5017462;28;20202;-69
2023/07/03 02:43:32;;;;;;;18.70;5.23;;;;;;;;;;5035158;28;20274;-69
2023/07/03 02:46:05;;;;;;;15.97;5.23;;;;;;;;;;5035329;28;20221;-69
2023/07/03 02:48:31;;;;;;;25.40;5.53;;;;;;;;;;5034909;28;20175;-69
2023/07/03 02:50:57;;;;;;;21.27;5.83;;;;;;;;;;5017022;28;20270;-69
2023/07/03 02:53:23;;;;;;;23.40;6.40;;;;;;;;;;5035138;28;20183;-69
2023/07/03 02:55:54;;;;;;;22.70;5.70;;;;;;;;;;5017146;28;20207;-69
2023/07/03 02:58:20;;;;;;;24.73;5.77;;;;;;;;;;5016927;28;20183;-68
2023/07/03 03:00:50;;;;;;;18.33;5.43;;;;;;;;;;5034554;28;20201;-68
2023/07/03 03:03:16;;;;;;;18.13;6.03;;;;;;;;;;5017852;28;20190;-68
2023/07/03 03:05:42;;;;;;;15.70;5.23;;;;;;;;;;5017403;28;20564;-69
2023/07/03 03:08:11;;;;;;;26.17;5.67;;;;;;;;;;5034559;28;20721;-68
2023/07/03 03:10:37;;;;;;;23.53;6.43;;;;;;;;;;5016255;28;20194;-68
2023/07/03 03:13:03;;;;;;;22.40;5.60;;;;;;;;;;5016337;28;20178;-69
2023/07/03 03:15:30;;;;;;;18.03;5.37;;;;;;;;;;5035055;28;20274;-69
2023/07/03 03:17:56;;;;;;;18.00;5.23;;;;;;;;;;5034628;28;20341;-69
2023/07/03 03:20:22;;;;;;;16.37;5.37;;;;;;;;;;5034372;28;20657;-69
2023/07/03 03:22:48;;;;;;;22.67;5.93;;;;;;;;;;5016470;28;20175;-69
2023/07/03 03:25:14;;;;;;;21.40;5.97;;;;;;;;;;5016552;28;20246;-69
2023/07/03 03:27:40;;;;;;;23.97;5.80;;;;;;;;;;5034360;28;20171;-69
2023/07/03 03:30:06;;;;;;;23.80;6.20;;;;;;;;;;5034618;28;20175;-69
2023/07/03 03:32:32;;;;;;;21.23;6.23;;;;;;;;;;5033965;28;20183;-69
2023/07/03 03:34:58;;;;;;;23.97;6.20;;;;;;;;;;5016357;28;20209;-69
2023/07/03 03:37:24;;;;;;;20.23;5.80;;;;;;;;;;5034173;28;20179;-69
2023/07/03 03:39:50;;;;;;;18.33;5.87;;;;;;;;;;5034061;28;20179;-69
2023/07/03 03:42:16;;;;;;;20.60;6.17;;;;;;;;;;5033815;28;20282;-69
2023/07/03 03:44:42;;;;;;;25.37;6.50;;;;;;;;;;5034041;28;20245;-69
2023/07/03 03:47:08;;;;;;;26.60;6.90;;;;;;;;;;5016184;28;20534;-69
2023/07/03 03:49:34;;;;;;;21.47;6.60;;;;;;;;;;5034386;28;20175;-69
2023/07/03 03:51:59;;;;;;;19.93;5.47;;;;;;;;;;5033754;28;20244;-69
2023/07/03 03:54:29;;;;;;;25.30;6.50;;;;;;;;;;5033802;28;20209;-69
2023/07/03 03:56:55;;;;;;;30.60;6.53;;;;;;;;;;5039173;28;20652;-68
2023/07/03 03:59:21;;;;;;;22.37;6.70;;;;;;;;;;5036923;28;20175;-69
2023/07/03 04:01:48;;;;;;;26.93;6.20;;;;;;;;;;5039486;28;20199;-69
2023/07/03 04:04:15;;;;;;;29.67;7.30;;;;;;;;;;5039504;28;20210;-68
2023/07/03 04:06:41;;;;;;;22.40;6.30;;;;;;;;;;5039807;28;20660;-69
2023/07/03 04:09:07;;;;;;;21.80;6.63;;;;;;;;;;5040429;28;20678;-69
2023/07/03 04:11:33;;;;;;;24.57;6.90;;;;;;;;;;5040240;28;20176;-69
2023/07/03 04:13:59;;;;;;;25.30;7.20;;;;;;;;;;5022149;28;20199;-69
2023/07/03 04:16:27;;;;;;;23.43;5.97;;;;;;;;;;5021398;28;20715;-69
2023/07/03 04:18:53;;;;;;;24.10;6.70;;;;;;;;;;5022612;28;20237;-69
2023/07/03 04:21:19;;;;;;;21.17;7.17;;;;;;;;;;5038908;28;20203;-68
2023/07/03 04:23:45;;;;;;;22.23;6.50;;;;;;;;;;5038565;28;20195;-68
2023/07/03 04:26:11;;;;;;;25.47;7.47;;;;;;;;;;5039961;28;20175;-69
2023/07/03 04:28:37;;;;;;;21.13;5.90;;;;;;;;;;5039563;28;20176;-69
2023/07/03 04:31:03;;;;;;;25.77;7.07;;;;;;;;;;5039869;28;20175;-69
2023/07/03 04:33:29;;;;;;;34.77;7.67;;;;;;;;;;5040191;28;20687;-69
2023/07/03 04:35:55;;;;;;;25.00;7.20;;;;;;;;;;5039180;28;20580;-69
2023/07/03 04:38:23;;;;;;;21.50;6.00;;;;;;;;;;5039080;28;20179;-69
2023/07/03 04:40:49;;;;;;;20.50;5.87;;;;;;;;;;5039818;28;20191;-69
2023/07/03 04:43:15;;;;;;;24.07;6.80;;;;;;;;;;5040060;28;20181;-69
2023/07/03 04:45:48;;;;;;;29.47;6.43;;;;;;;;;;5040460;28;20673;-69
2023/07/03 04:48:16;;;;;;;27.00;7.10;;;;;;;;;;5039823;28;20259;-69
2023/07/03 04:50:42;;;;;;;25.73;6.97;;;;;;;;;;5039780;28;20201;-69
2023/07/03 04:53:08;;;;;;;20.97;5.77;;;;;;;;;;5038378;28;20206;-69
2023/07/03 04:55:34;;;;;;;25.50;7.13;;;;;;;;;;5038977;28;20198;-69
2023/07/03 04:58:00;;;;;;;22.53;6.80;;;;;;;;;;5038858;28;20179;-69
2023/07/03 05:00:27;;;;;;;28.87;7.03;;;;;;;;;;5038407;28;20270;-69
2023/07/03 05:02:55;;;;;;;26.13;7.23;;;;;;;;;;5038382;28;20530;-69
2023/07/03 05:05:21;;;;;;;33.40;7.73;;;;;;;;;;5037920;28;20213;-69
2023/07/03 05:07:47;;;;;;;24.70;6.83;;;;;;;;;;5038507;28;20215;-69
2023/07/03 05:10:16;;;;;;;24.83;7.10;;;;;;;;;;5038051;28;20183;-69
2023/07/03 05:12:42;;;;;;;23.03;7.20;;;;;;;;;;5037022;28;20232;-69
2023/07/03 05:15:08;;;;;;;24.43;6.70;;;;;;;;;;5021856;28;20294;-69
2023/07/03 05:17:38;;;;;;;23.87;6.37;;;;;;;;;;5037076;28;20183;-69
2023/07/03 05:20:06;;;;;;;24.13;6.70;;;;;;;;;;5037917;28;20218;-70
2023/07/03 05:22:32;;;;;;;26.17;6.77;;;;;;;;;;5037898;28;20195;-69
2023/07/03 05:25:00;;;;;;;23.43;6.73;;;;;;;;;;5038287;28;20242;-69
2023/07/03 05:27:26;;;;;;;27.93;7.20;;;;;;;;;;5020366;28;20185;-71
2023/07/03 05:29:52;;;;;;;24.80;8.60;;;;;;;;;;5020355;28;20226;-70
2023/07/03 05:32:18;;;;;;;44.10;19.40;;;;;;;;;;5038153;28;20191;-69
2023/07/03 05:34:44;;;;;;;55.30;23.37;;;;;;;;;;5039017;28;20199;-70
2023/07/03 05:37:09;;;;;;;30.40;12.73;;;;;;;;;;5041132;28;20178;-69
2023/07/03 05:39:35;;;;;;;40.20;16.73;;;;;;;;;;5024157;28;20175;-70
2023/07/03 05:42:01;;;;;;;39.97;14.63;;;;;;;;;;5051960;28;20195;-70
2023/07/03 05:44:27;;;;;;;28.83;10.87;;;;;;;;;;5041385;28;20237;-69
2023/07/03 05:46:53;;;;;;;39.87;18.37;;;;;;;;;;5036825;28;20653;-70
2023/07/03 05:49:19;;;;;;;37.13;13.50;;;;;;;;;;5036556;28;20171;-69
2023/07/03 05:51:45;;;;;;;23.77;8.73;;;;;;;;;;5036149;28;20179;-69
2023/07/03 05:54:12;;;;;;;29.57;7.80;;;;;;;;;;5018326;28;20323;-69
2023/07/03 05:56:38;;;;;;;23.67;8.10;;;;;;;;;;5018641;28;20218;-69
2023/07/03 05:59:04;;;;;;;24.23;7.67;;;;;;;;;;5018665;28;20191;-69
2023/07/03 06:01:30;;;;;;;22.93;6.73;;;;;;;;;;5018427;28;20298;-70
2023/07/03 06:03:56;;;;;;;25.87;7.83;;;;;;;;;;5035806;28;20206;-69
2023/07/03 06:06:22;;;;;;;23.33;6.57;;;;;;;;;;5036168;28;20248;-70
2023/07/03 06:08:48;;;;;;;21.20;6.83;;;;;;;;;;5036469;28;20227;-69
2023/07/03 06:11:13;;;;;;;24.80;7.60;;;;;;;;;;5036060;28;20555;-69
2023/07/03 06:13:39;;;;;;;27.07;7.33;;;;;;;;;;5035960;28;20703;-69
2023/07/03 06:16:05;;;;;;;29.17;7.73;;;;;;;;;;5036126;28;20179;-70
2023/07/03 06:18:31;;;;;;;26.60;7.37;;;;;;;;;;5036046;28;20309;-69
2023/07/03 06:20:57;;;;;;;25.37;7.90;;;;;;;;;;5036290;28;20582;-70
2023/07/03 06:23:23;;;;;;;19.57;6.80;;;;;;;;;;5036168;28;20532;-69
2023/07/03 06:25:49;;;;;;;32.13;8.63;;;;;;;;;;5036265;28;20637;-69
2023/07/03 06:28:15;;;;;;;21.27;7.27;;;;;;;;;;5035866;28;20691;-70
2023/07/03 06:30:47;;;;;;;29.87;7.63;;;;;;;;;;5036065;28;20233;-69
2023/07/03 06:33:13;;;;;;;27.63;7.23;;;;;;;;;;5018266;28;20182;-69
2023/07/03 06:35:38;;;;;;;19.87;6.30;;;;;;;;;;5037278;28;20199;-69
2023/07/03 06:38:04;;;;;;;21.07;5.57;;;;;;;;;;5035633;28;20225;-70
2023/07/03 06:40:30;;;;;;;20.83;6.50;;;;;;;;;;5035756;28;20171;-70
2023/07/03 06:42:56;;;;;;;26.70;7.33;;;;;;;;;;5035501;28;20178;-69
2023/07/03 06:45:22;;;;;;;25.40;7.10;;;;;;;;;;5035365;28;20233;-70
2023/07/03 06:47:48;;;;;;;23.27;6.97;;;;;;;;;;5035253;28;20175;-70
2023/07/03 06:50:14;;;;;;;26.93;7.20;;;;;;;;;;5035391;28;20187;-70
2023/07/03 06:52:41;;;;;;;26.27;7.10;;;;;;;;;;5035035;28;20182;-70
2023/07/03 06:55:07;;;;;;;22.20;6.63;;;;;;;;;;5035192;28;20207;-70
2023/07/03 06:57:34;;;;;;;19.20;6.37;;;;;;;;;;5035324;28;20179;-70
2023/07/03 07:00:00;;;;;;;25.20;7.20;;;;;;;;;;5017410;28;20181;-70
2023/07/03 07:02:26;;;;;;;23.97;6.43;;;;;;;;;;5034803;28;20278;-70
2023/07/03 07:04:55;;;;;;;31.17;7.27;;;;;;;;;;5017174;28;20261;-70
2023/07/03 07:07:21;;;;;;;19.90;7.00;;;;;;;;;;5035052;28;20175;-70
2023/07/03 07:09:47;;;;;;;24.53;7.27;;;;;;;;;;5034669;28;20179;-70
2023/07/03 07:12:13;;;;;;;19.00;6.07;;;;;;;;;;5034734;28;20270;-69
2023/07/03 07:14:39;;;;;;;29.07;7.10;;;;;;;;;;5034565;28;20738;-70
2023/07/03 07:17:05;;;;;;;17.50;6.63;;;;;;;;;;5016737;28;20218;-70
2023/07/03 07:19:31;;;;;;;19.20;6.80;;;;;;;;;;5034460;28;20178;-70
2023/07/03 07:21:57;;;;;;;19.17;6.63;;;;;;;;;;5016593;28;20199;-70
2023/07/03 07:24:24;;;;;;;22.83;6.53;;;;;;;;;;5034454;28;20194;-70
2023/07/03 07:26:54;;;;;;;21.33;6.90;;;;;;;;;;5016834;28;20179;-71
2023/07/03 07:29:20;;;;;;;;;;;;;;;;;;5034850;28;20038;-70
2023/07/03 07:31:46;;;;;;;;;;;;;;;;;;5034744;28;19912;-70
2023/07/03 07:34:12;;;;;;;;;;;;;;;;;;5034838;28;19909;-70
2023/07/03 07:36:38;;;;;;;;;;;;;;;;;;5034670;28;19941;-70
2023/07/03 07:39:04;;;;;;;;;;;;;;;;;;5034807;28;19905;-69
2023/07/03 07:41:30;;;;;;;;;;;;;;;;;;5034559;28;19909;-70
2023/07/03 07:43:58;;;;;;;23.27;5.90;;;;;;;;;;5033876;28;20676;-70
2023/07/03 07:46:28;;;;;;;28.67;6.83;;;;;;;;;;5034144;28;20207;-69
2023/07/03 07:48:54;;;;;;;20.23;7.00;;;;;;;;;;5033860;28;20183;-69
2023/07/03 07:51:20;;;;;;;24.23;6.50;;;;;;;;;;5034410;28;20190;-69
2023/07/03 07:53:46;;;;;;;19.07;6.00;;;;;;;;;;5033943;28;20199;-69
2023/07/03 07:56:13;;;;;;;22.53;6.67;;;;;;;;;;5033699;28;20553;-69
2023/07/03 07:58:39;;;;;;;18.87;5.80;;;;;;;;;;5033120;28;20171;-70
2023/07/03 08:01:06;;;;;;;15.07;5.80;;;;;;;;;;5033728;28;20206;-70
2023/07/03 08:03:32;;;;;;;17.70;5.60;;;;;;;;;;5033753;28;20183;-70
2023/07/03 08:05:58;;;;;;;17.17;5.33;;;;;;;;;;5016038;28;20267;-70
2023/07/03 08:08:26;;;;;;;15.83;6.03;;;;;;;;;;5033387;28;20175;-69
2023/07/03 08:10:53;;;;;;;19.37;5.50;;;;;;;;;;5033537;28;20217;-69
2023/07/03 08:13:19;;;;;;;18.37;6.77;;;;;;;;;;5015834;28;20179;-69
2023/07/03 08:15:45;;;;;;;21.30;6.27;;;;;;;;;;5033487;28;20183;-70
2023/07/03 08:18:11;;;;;;;21.47;6.03;;;;;;;;;;5033401;28;20237;-70
2023/07/03 08:20:37;;;;;;;16.43;5.77;;;;;;;;;;5034387;28;20183;-70
2023/07/03 08:23:03;;;;;;;17.23;7.30;;;;;;;;;;5034467;28;20582;-71
2023/07/03 08:25:29;;;;;;;24.97;6.27;;;;;;;;;;5015857;28;20199;-70
2023/07/03 08:27:55;;;;;;;17.23;5.23;;;;;;;;;;5033533;28;20181;-70
2023/07/03 08:30:24;;;;;;;21.27;6.33;;;;;;;;;;5015740;28;20229;-71
2023/07/03 08:32:50;;;;;;;15.47;5.37;;;;;;;;;;5033854;28;20581;-70
2023/07/03 08:35:19;;;;;;;15.70;4.17;;;;;;;;;;5033506;28;20210;-70
2023/07/03 08:37:45;;;;;;;17.07;4.50;;;;;;;;;;5015917;28;20275;-70
2023/07/03 08:40:16;;;;;;;14.83;4.77;;;;;;;;;;5033687;28;20217;-70
2023/07/03 08:43:02;;;;;;;12.50;4.60;;;;;;;;;;5033424;28;20195;-70
2023/07/03 08:45:38;;;;;;;16.33;4.60;;;;;;;;;;5033444;28;20207;-70
2023/07/03 08:48:07;;;;;;;13.30;5.03;;;;;;;;;;5033675;28;20179;-70
2023/07/03 08:50:34;;;;;;;17.63;4.70;;;;;;;;;;5033940;28;20214;-70
2023/07/03 08:53:03;;;;;;;13.33;4.43;;;;;;;;;;5015498;28;20179;-69
2023/07/03 08:55:32;;;;;;;13.20;4.80;;;;;;;;;;5033631;28;20191;-70
2023/07/03 08:57:58;;;;;;;17.83;5.57;;;;;;;;;;5033158;28;20187;-69
2023/07/03 09:00:24;;;;;;;13.93;5.13;;;;;;;;;;5033475;28;20187;-70
2023/07/03 09:02:57;;;;;;;14.77;5.07;;;;;;;;;;5015535;28;20207;-70
2023/07/03 09:05:26;;;;;;;17.33;5.33;;;;;;;;;;5015486;28;20217;-70
2023/07/03 09:08:00;;;;;;;13.00;5.47;;;;;;;;;;5033309;28;20207;-70
2023/07/03 09:10:27;;;;;;;14.07;4.63;;;;;;;;;;5035515;28;20200;-70
2023/07/03 09:12:57;;;;;;;16.30;4.43;;;;;;;;;;5037482;28;20716;-70
2023/07/03 09:15:23;;;;;;;13.57;4.83;;;;;;;;;;5037439;28;20211;-70
2023/07/03 09:17:50;;;;;;;16.20;5.07;;;;;;;;;;5036729;28;20244;-70
2023/07/03 09:20:16;;;;;;;15.17;4.70;;;;;;;;;;5037516;28;20229;-70
2023/07/03 09:22:48;;;;;;;17.67;5.20;;;;;;;;;;5037044;28;20289;-70
2023/07/03 09:25:20;;;;;;;16.77;4.53;;;;;;;;;;5036952;28;20248;-69
2023/07/03 09:27:47;;;;;;;11.80;4.50;;;;;;;;;;5036688;28;20179;-70
2023/07/03 09:30:14;;;;;;;16.57;5.27;;;;;;;;;;5037026;28;20183;-70
2023/07/03 09:32:40;;;;;;;12.07;4.50;;;;;;;;;;5036349;28;20364;-70
2023/07/03 09:35:11;;;;;;;11.27;4.90;;;;;;;;;;5036359;28;20289;-70
2023/07/03 09:37:38;;;;;;;15.00;5.10;;;;;;;;;;5018679;28;20176;-70
2023/07/03 09:40:09;;;;;;;11.30;3.60;;;;;;;;;;5036979;28;20239;-70
2023/07/03 09:42:35;;;;;;;11.60;4.67;;;;;;;;;;5036588;28;20309;-70
2023/07/03 09:45:01;;;;;;;12.90;5.27;;;;;;;;;;5036365;28;20195;-70
2023/07/03 09:47:31;;;;;;;17.63;4.87;;;;;;;;;;5036501;28;20612;-70
2023/07/03 09:50:06;;;;;;;14.10;4.93;;;;;;;;;;5035969;28;20175;-70
2023/07/03 09:52:32;;;;;;;12.73;4.23;;;;;;;;;;5018471;28;20695;-70
2023/07/03 09:55:02;;;;;;;14.53;4.70;;;;;;;;;;5036361;28;20219;-70
2023/07/03 09:57:28;;;;;;;14.60;4.47;;;;;;;;;;5036517;28;20184;-70
2023/07/03 09:59:55;;;;;;;13.10;4.83;;;;;;;;;;5036256;28;20183;-70
2023/07/03 10:02:22;;;;;;;16.27;4.83;;;;;;;;;;5035861;28;20225;-70
2023/07/03 10:04:48;;;;;;;13.97;4.43;;;;;;;;;;5018222;28;20225;-70
2023/07/03 10:07:16;;;;;;;12.97;4.73;;;;;;;;;;5018726;28;20186;-70
2023/07/03 10:09:42;;;;;;;13.07;4.80;;;;;;;;;;5036127;28;20187;-70
2023/07/03 10:12:15;;;;;;;10.80;4.00;;;;;;;;;;5017976;28;20189;-70
2023/07/03 10:14:44;;;;;;;11.27;4.40;;;;;;;;;;5018104;28;20232;-69
2023/07/03 10:17:12;;;;;;;13.10;4.43;;;;;;;;;;5036108;28;20179;-70
2023/07/03 10:19:39;;;;;;;11.70;4.40;;;;;;;;;;5035973;28;20179;-70
2023/07/03 10:22:06;;;;;;;7.07;3.70;;;;;;;;;;5035234;28;20198;-70
2023/07/03 10:24:32;;;;;;;12.27;4.03;;;;;;;;;;5035278;28;20230;-70
2023/07/03 10:26:59;;;;;;;9.67;3.40;;;;;;;;;;5035655;28;20171;-70
2023/07/03 10:29:37;;;;;;;13.07;4.57;;;;;;;;;;5035822;28;20179;-70
2023/07/03 10:32:13;;;;;;;10.13;3.50;;;;;;;;;;5035624;28;20155;-70
2023/07/03 10:34:52;;;;;;;12.93;3.83;;;;;;;;;;5035369;28;20296;-70
2023/07/03 10:37:18;;;;;;;15.00;4.50;;;;;;;;;;5035334;28;20232;-70
2023/07/03 10:40:00;;;;;;;10.57;3.63;;;;;;;;;;5035506;28;20555;-70
2023/07/03 10:42:34;;;;;;;13.10;3.70;;;;;;;;;;5017514;28;20265;-70
2023/07/03 10:45:02;;;;;;;9.87;3.83;;;;;;;;;;5035337;28;20195;-70
2023/07/03 10:47:32;;;;;;;7.93;3.27;;;;;;;;;;5035354;28;20182;-70
2023/07/03 10:49:58;;;;;;;11.17;3.97;;;;;;;;;;5035602;28;20170;-70
2023/07/03 10:52:29;;;;;;;19.23;4.60;;;;;;;;;;5035008;28;20191;-70
2023/07/03 10:54:55;;;;;;;10.73;4.57;;;;;;;;;;5035036;28;20195;-69
2023/07/03 10:57:28;;;;;;;12.50;4.37;;;;;;;;;;5034955;28;20190;-70
2023/07/03 10:59:58;;;;;;;9.10;3.77;;;;;;;;;;5035031;28;20172;-69
2023/07/03 11:02:32;;;;;;;11.20;4.67;;;;;;;;;;5035985;28;20732;-70
2023/07/03 11:05:18;;;;;;;9.47;3.97;;;;;;;;;;5034819;28;20237;-70
2023/07/03 11:07:50;;;;;;;10.97;4.67;;;;;;;;;;5034852;28;20274;-70
2023/07/03 11:10:22;;;;;;;14.20;4.57;;;;;;;;;;5035275;28;20174;-69
2023/07/03 11:13:04;;;;;;;10.27;4.30;;;;;;;;;;5034722;28;20649;-70
2023/07/03 11:15:49;;;;;;;10.87;4.20;;;;;;;;;;5034576;28;20190;-67
2023/07/03 11:18:15;;;;;;;11.63;4.37;;;;;;;;;;5034585;28;20179;-70
2023/07/03 11:20:46;;;;;;;17.00;4.97;;;;;;;;;;5016723;28;20732;-68
2023/07/03 11:23:32;;;;;;;13.40;4.87;;;;;;;;;;5016947;28;20168;-68
2023/07/03 11:26:00;;;;;;;14.63;4.87;;;;;;;;;;5034807;28;20195;-68
2023/07/03 11:28:35;;;;;;;12.47;4.80;;;;;;;;;;5034494;28;20597;-69
2023/07/03 11:31:02;;;;;;;14.70;5.07;;;;;;;;;;5034451;28;20174;-68
2023/07/03 11:33:29;;;;;;;12.63;4.77;;;;;;;;;;5033673;28;20188;-68
2023/07/03 11:35:57;;;;;;;11.13;4.87;;;;;;;;;;5016557;28;20186;-68
2023/07/03 11:38:23;;;;;;;12.17;5.13;;;;;;;;;;5034302;28;20186;-69
2023/07/03 11:40:55;;;;;;;13.00;4.80;;;;;;;;;;5034159;28;20229;-68
2023/07/03 11:43:21;;;;;;;15.63;5.70;;;;;;;;;;5016475;28;20187;-68
2023/07/03 11:45:59;;;;;;;12.13;5.00;;;;;;;;;;5034203;28;20175;-68
2023/07/03 11:48:37;;;;;;;13.17;4.97;;;;;;;;;;5016288;28;20179;-69
2023/07/03 11:51:04;;;;;;;12.93;5.13;;;;;;;;;;5034345;28;20629;-67
2023/07/03 11:53:38;;;;;;;12.27;4.77;;;;;;;;;;5034647;28;20179;-68
2023/07/03 11:56:04;;;;;;;12.07;5.27;;;;;;;;;;5034218;28;20186;-68
2023/07/03 11:58:33;;;;;;;9.60;4.33;;;;;;;;;;5042882;28;20188;-69
2023/07/03 12:01:17;;;;;;;11.27;4.40;;;;;;;;;;5034251;28;20613;-68
2023/07/03 12:03:53;;;;;;;11.50;4.33;;;;;;;;;;5033885;28;20253;-68
2023/07/03 12:06:43;;;;;;;8.03;4.00;;;;;;;;;;5033853;28;20167;-68
2023/07/03 12:09:25;;;;;;;11.50;4.07;;;;;;;;;;5016188;28;20167;-69
2023/07/03 12:11:59;;;;;;;10.10;4.60;;;;;;;;;;5034089;28;20171;-68
2023/07/03 12:14:53;;;;;;;14.60;4.80;;;;;;;;;;5016041;28;20228;-69
2023/07/03 12:17:19;;;;;;;10.60;4.53;;;;;;;;;;5015907;28;20263;-68
2023/07/03 12:19:46;;;;;;;13.23;5.17;;;;;;;;;;5034385;28;20211;-68
2023/07/03 12:22:12;;;;;;;12.10;4.67;;;;;;;;;;5033523;28;20612;-68
2023/07/03 12:24:38;;;;;;;8.97;4.53;;;;;;;;;;5033916;28;20574;-68
2023/07/03 12:27:05;;;;;;;11.13;5.03;;;;;;;;;;5015778;28;20266;-68
2023/07/03 12:29:33;;;;;;;19.50;5.63;;;;;;;;;;5033459;28;20228;-69
2023/07/03 12:32:07;;;;;;;14.57;5.20;;;;;;;;;;5015785;28;20191;-68
2023/07/03 12:34:35;;;;;;;10.90;4.70;;;;;;;;;;5033611;28;20244;-68
2023/07/03 12:37:06;;;;;;;13.67;5.20;;;;;;;;;;5015691;28;20210;-68
2023/07/03 12:39:32;;;;;;;14.23;5.17;;;;;;;;;;5033422;28;20206;-69
2023/07/03 12:42:07;;;;;;;10.57;4.87;;;;;;;;;;5033248;28;20245;-68
2023/07/03 12:44:33;;;;;;;13.23;5.00;;;;;;;;;;5038001;28;20194;-69
2023/07/03 12:47:13;;;;;;;14.67;4.60;;;;;;;;;;5039665;28;20182;-69
2023/07/03 12:49:46;;;;;;;12.93;4.97;;;;;;;;;;5040178;28;20257;-69
2023/07/03 12:52:14;;;;;;;10.23;4.20;;;;;;;;;;5022140;28;20194;-69
2023/07/03 12:54:40;;;;;;;9.63;4.00;;;;;;;;;;5040397;28;20198;-68
2023/07/03 12:57:06;;;;;;;10.63;4.37;;;;;;;;;;5021712;28;20210;-68
2023/07/03 12:59:33;;;;;;;7.93;3.17;;;;;;;;;;5039450;28;20185;-68
2023/07/03 13:01:59;;;;;;;8.03;3.73;;;;;;;;;;5039738;28;20208;-67
2023/07/03 13:04:26;;;;;;;7.47;3.70;;;;;;;;;;5039350;28;20218;-68
2023/07/03 13:06:53;;;;;;;12.67;4.13;;;;;;;;;;5039419;28;20201;-68
2023/07/03 13:09:19;;;;;;;9.40;3.90;;;;;;;;;;5039377;28;20175;-68
2023/07/03 13:11:45;;;;;;;11.53;4.33;;;;;;;;;;5039281;28;20288;-68
2023/07/03 13:14:15;;;;;;;12.13;4.07;;;;;;;;;;5021528;28;20202;-68
2023/07/03 13:16:42;;;;;;;8.20;4.23;;;;;;;;;;5021539;28;20185;-68
2023/07/03 13:19:08;;;;;;;11.73;3.67;;;;;;;;;;5039542;28;20586;-69
2023/07/03 13:21:36;;;;;;;9.40;3.97;;;;;;;;;;5039501;28;20210;-68
2023/07/03 13:24:20;;;;;;;16.43;4.20;;;;;;;;;;5039194;28;20566;-68
2023/07/03 13:26:47;;;;;;;16.67;4.50;;;;;;;;;;5039297;28;20182;-68
2023/07/03 13:29:14;;;;;;;13.00;4.67;;;;;;;;;;5039552;28;20201;-68
2023/07/03 13:31:40;;;;;;;13.37;3.97;;;;;;;;;;5039196;28;20198;-67
2023/07/03 13:34:15;;;;;;;13.80;4.50;;;;;;;;;;5039103;28;20194;-68
2023/07/03 13:36:45;;;;;;;7.80;3.67;;;;;;;;;;5039125;28;20175;-68
2023/07/03 13:39:13;;;;;;;10.40;4.40;;;;;;;;;;5039484;28;20724;-68
2023/07/03 13:41:40;;;;;;;9.13;4.33;;;;;;;;;;5039533;28;20210;-68
2023/07/03 13:44:07;;;;;;;8.47;3.83;;;;;;;;;;5039226;28;20187;-68
2023/07/03 13:46:33;;;;;;;8.53;4.07;;;;;;;;;;5039270;28;20175;-68
2023/07/03 13:49:00;;;;;;;13.07;4.03;;;;;;;;;;5021584;28;20190;-68
2023/07/03 13:51:26;;;;;;;8.63;4.20;;;;;;;;;;5021304;28;20214;-69
2023/07/03 13:53:52;;;;;;;12.03;4.60;;;;;;;;;;5038974;28;20233;-68
2023/07/03 13:56:19;;;;;;;11.27;5.07;;;;;;;;;;5035791;28;20187;-69
2023/07/03 13:58:45;;;;;;;12.80;4.57;;;;;;;;;;5036050;28;20186;-68
2023/07/03 14:01:12;;;;;;;11.57;4.30;;;;;;;;;;5018365;28;20202;-68
2023/07/03 14:03:39;;;;;;;11.07;4.70;;;;;;;;;;5035724;28;20202;-68
2023/07/03 14:06:06;;;;;;;9.37;3.90;;;;;;;;;;5036116;28;20606;-68
2023/07/03 14:08:32;;;;;;;12.03;4.17;;;;;;;;;;5035644;28;20167;-69
2023/07/03 14:10:58;;;;;;;10.63;4.90;;;;;;;;;;5035785;28;20229;-69
2023/07/03 14:13:24;;;;;;;14.93;4.80;;;;;;;;;;5017934;28;20183;-69
2023/07/03 14:15:50;;;;;;;15.23;4.80;;;;;;;;;;5035743;28;20186;-68
2023/07/03 14:18:17;;;;;;;9.60;4.70;;;;;;;;;;5035649;28;20206;-69
2023/07/03 14:20:43;;;;;;;11.37;4.07;;;;;;;;;;5035567;28;20226;-68
2023/07/03 14:23:09;;;;;;;20.27;13.30;;;;;;;;;;5017865;28;20210;-68
2023/07/03 14:25:36;;;;;;;12.17;4.70;;;;;;;;;;5017776;28;20677;-68
2023/07/03 14:28:02;;;;;;;14.30;6.30;;;;;;;;;;5017756;28;20180;-69
2023/07/03 14:30:28;;;;;;;13.73;5.13;;;;;;;;;;5035789;28;20225;-68
2023/07/03 14:32:54;;;;;;;13.30;4.80;;;;;;;;;;5018102;28;20187;-68
2023/07/03 14:35:20;;;;;;;9.37;4.37;;;;;;;;;;5035293;28;20202;-69
2023/07/03 14:37:46;;;;;;;14.50;4.80;;;;;;;;;;5035160;28;20179;-69